world map with LTQ marked

LTQ - Airport

This information may not be accurate or current and is not valid for navigation or flight planning. No warranty of fitness for any purpose is made or implied.

flag of Nord-Pas-de-Calaisflag of France

Donate via PayPal

Additional information is available on the NEW Great Circle Mapper

Location
City:  Le Touquet-Paris-Plage, Nord-Pas-de-Calais, France
ICAO / IATA:LFAT / LTQ

Details
Type:Airport (Aerodrome, Airfield)
Use:Public/Civil
Latitude:50°30'53"N (50.514847)
Longitude:1°37'39"E (1.627578)
Elevation:36 ft (11 m)
Runways:2
Longest:6070 × 131 ft (1850 × 40 m)

Time
Timezone:UTC+1 (DST+4)
Local Time:

Weather
METAR:LFAT  041400Z AUTO 17005KT 130V220 9999 -RA FEW009 OVC015 04/03 Q1021 TEMPO 4000 SNRA BKN007 OVC012

Related Locations
Nearby:
Farthest:CHT: 11958 mi / 19245 km
Waitangi [Tuuta], CIT, NZ

Find:

   beyond  
but within

Other Information
Maps:
Sources:

  


 


Great Circle Mapper   Great Circle Mapper
Great Circle Mapper FAQ   Great Circle Mapper FAQ
  Karl's Home Page
KLSē   KLSē Home
   GC on Facebook
Airlines of the World   Airlines of the World
Donate via PayPal


Copyright © 2004-2019, Karl L. Swartz. All rights reserved.
All trademarks mentioned herein belong to their respective owners.

Please see credits for attribution and copyright information.

Karl Swartz <karl@kls2.com>
  Powered by FreeBSD
Valid HTML 4.01!
Labeled with ICRA
hCard Microformat
Geo Microformat